Time;durP1;ratioP1;P1;durP2;ratioP2;P2;SDS_P1;SDS_P2;PMS_P1;PMS_P2;Temp;Humidity;BMP_temperature;BMP_pressure;BME280_temperature;BME280_humidity;BME280_pressure;Samples;Min_cycle;Max_cycle;Signal;HPM_P1;HPM_P2
2023/09/27 04:31:18;;;;;;;;;11.50;10.25;;;;;28.53;40.14;101411.59;5021181;28;46553;-74
2023/09/27 04:33:44;;;;;;;;;11.75;10.75;;;;;28.51;40.34;101406.25;5029528;28;45331;-75
2023/09/27 04:36:16;;;;;;;;;16.75;12.75;;;;;28.52;40.15;101387.78;5035453;28;45986;-74
2023/09/27 04:38:44;;;;;;;;;11.50;8.25;;;;;28.54;40.31;101392.13;5035293;28;45541;-75
2023/09/27 04:41:09;;;;;;;;;15.75;11.00;;;;;28.49;40.27;101390.91;5034924;28;45363;-73
2023/09/27 04:43:34;;;;;;;;;12.00;11.00;;;;;28.41;40.90;101399.19;5034874;28;45499;-75
2023/09/27 04:46:00;;;;;;;;;13.00;11.50;;;;;28.33;40.38;101385.38;5049690;28;47378;-74
2023/09/27 04:48:25;;;;;;;;;17.25;13.75;;;;;28.35;40.81;101388.81;5035040;28;45263;-75
2023/09/27 04:50:51;;;;;;;;;16.00;13.50;;;;;28.38;40.71;101386.59;5035414;28;45378;-75
2023/09/27 04:53:16;;;;;;;;;11.75;11.75;;;;;28.39;40.42;101390.22;5035037;28;45359;-76
2023/09/27 04:55:41;;;;;;;;;10.00;10.00;;;;;28.29;40.45;101383.97;5034950;28;46091;-75
2023/09/27 04:58:07;;;;;;;;;10.00;10.00;;;;;28.26;40.95;101389.81;5034796;28;45364;-75
2023/09/27 05:00:32;;;;;;;;;15.75;14.00;;;;;28.28;40.84;101387.75;5034462;28;45332;-75
2023/09/27 05:02:58;;;;;;;;;10.00;10.00;;;;;28.24;40.93;101373.47;5034945;28;46335;-75
2023/09/27 05:05:23;;;;;;;;;11.00;10.00;;;;;28.29;40.38;101375.72;5034892;28;45940;-75
2023/09/27 05:07:48;;;;;;;;;12.50;10.00;;;;;28.26;40.55;101374.16;5034677;28;45416;-76
2023/09/27 05:10:14;;;;;;;;;11.50;9.25;;;;;28.15;40.97;101374.47;5034441;28;45408;-71
2023/09/27 05:12:39;;;;;;;;;10.50;9.75;;;;;28.12;40.51;101381.16;5034589;28;45553;-75
2023/09/27 05:15:07;;;;;;;;;8.75;8.75;;;;;28.11;40.85;101392.34;5034605;28;45985;-72
2023/09/27 05:17:33;;;;;;;;;14.75;13.00;;;;;28.06;40.92;101392.88;5037909;28;45411;-75
2023/09/27 05:19:58;;;;;;;;;10.75;10.25;;;;;27.96;41.02;101394.91;5034521;28;45463;-75
2023/09/27 05:22:24;;;;;;;;;11.50;10.50;;;;;27.86;40.86;101385.91;5033780;28;45675;-69
2023/09/27 05:24:49;;;;;;;;;11.00;11.00;;;;;27.86;40.85;101392.28;5034358;28;46199;-76
2023/09/27 05:27:15;;;;;;;;;11.50;11.00;;;;;27.76;41.40;101391.53;5033922;28;45668;-76
2023/09/27 05:29:40;;;;;;;;;12.00;12.00;;;;;27.62;41.40;101392.19;5034884;28;45398;-76
2023/09/27 05:32:05;;;;;;;;;9.50;9.50;;;;;27.54;41.23;101380.25;5034088;28;45349;-77
2023/09/27 05:34:31;;;;;;;;;10.00;10.00;;;;;27.48;41.45;101388.09;5034463;28;46214;-78
2023/09/27 05:36:57;;;;;;;;;12.75;12.75;;;;;27.50;41.07;101401.72;5034211;28;45316;-76
2023/09/27 05:39:23;;;;;;;;;10.50;10.50;;;;;27.44;41.85;101406.00;5034273;28;45285;-75
2023/09/27 05:41:48;;;;;;;;;12.50;11.25;;;;;27.50;41.11;101407.22;5034414;28;46334;-75
2023/09/27 05:44:14;;;;;;;;;12.00;11.50;;;;;27.35;41.42;101409.75;5034317;28;45432;-74
2023/09/27 05:46:40;;;;;;;;;11.00;11.00;;;;;27.39;41.58;101410.28;5033653;28;45532;-78
2023/09/27 05:49:09;;;;;;;;;12.25;11.50;;;;;27.39;41.38;101416.63;5016007;28;45286;-79
2023/09/27 05:51:35;;;;;;;;;10.50;9.50;;;;;27.42;41.62;101423.72;5029332;28;45895;-77
2023/09/27 05:54:00;;;;;;;;;10.25;10.25;;;;;27.40;42.04;101425.75;5032858;28;46316;-78
2023/09/27 05:56:27;;;;;;;;;14.25;12.25;;;;;27.44;42.12;101439.06;5032562;28;45411;-77
2023/09/27 05:58:53;;;;;;;;;11.75;9.25;;;;;27.49;41.89;101436.66;5031929;28;45463;-77
2023/09/27 06:01:19;;;;;;;;;11.00;11.00;;;;;27.56;42.00;101431.38;5033540;28;45466;-76
2023/09/27 06:03:46;;;;;;;;;9.50;9.50;;;;;27.60;41.71;101432.81;5034166;28;46175;-78
2023/09/27 06:06:12;;;;;;;;;13.50;11.75;;;;;27.66;41.39;101439.53;5032329;28;45366;-77
2023/09/27 06:08:38;;;;;;;;;8.75;8.75;;;;;27.67;41.75;101441.25;5033108;28;45354;-79
2023/09/27 06:11:03;;;;;;;;;12.50;10.50;;;;;27.68;41.23;101440.25;5033238;28;45602;-76
2023/09/27 06:13:28;;;;;;;;;11.50;11.50;;;;;27.72;41.79;101445.28;5034018;28;45394;-77
2023/09/27 06:15:54;;;;;;;;;12.75;12.75;;;;;27.79;41.57;101435.31;5034330;28;45394;-79
2023/09/27 06:18:21;;;;;;;;;12.25;12.25;;;;;27.82;41.17;101428.59;5035683;28;45347;-78
2023/09/27 06:20:47;;;;;;;;;11.50;11.25;;;;;27.85;41.04;101440.16;5033383;28;45611;-77
2023/09/27 06:23:13;;;;;;;;;12.25;10.50;;;;;27.91;41.15;101452.41;5033679;28;46379;-76
2023/09/27 06:25:43;;;;;;;;;14.00;12.00;;;;;27.82;40.97;101448.75;5032718;28;45347;-78
2023/09/27 06:28:11;;;;;;;;;12.25;11.25;;;;;27.72;40.89;101439.78;5033431;28;45495;-78
2023/09/27 06:30:37;;;;;;;;;10.50;10.50;;;;;27.86;41.08;101441.03;5031955;28;46062;-79
2023/09/27 06:33:03;;;;;;;;;8.25;8.25;;;;;27.90;41.38;101438.81;5013987;28;45370;-77
2023/09/27 06:35:28;;;;;;;;;12.00;12.00;;;;;27.95;40.62;101441.91;5013902;28;45377;-77
2023/09/27 06:37:54;;;;;;;;;13.50;13.25;;;;;27.94;40.67;101445.69;5014160;28;45222;-77
2023/09/27 06:40:22;;;;;;;;;14.50;12.50;;;;;27.68;41.04;101419.06;5012018;28;45444;-77
2023/09/27 06:42:48;;;;;;;;;13.00;10.75;;;;;27.86;41.12;101430.00;5013491;28;46297;-78
2023/09/27 06:45:14;;;;;;;;;14.00;12.00;;;;;27.91;40.61;101441.38;5013787;28;45405;-77
2023/09/27 06:47:41;;;;;;;;;10.25;10.25;;;;;27.96;41.18;101447.28;5014017;28;45415;-77
2023/09/27 06:50:10;;;;;;;;;13.00;11.50;;;;;27.99;40.55;101454.31;5013467;28;45268;-77
2023/09/27 06:52:37;;;;;;;;;11.00;11.00;;;;;28.06;41.08;101448.00;5013594;28;45337;-77
2023/09/27 06:55:03;;;;;;;;;15.75;14.75;;;;;28.20;40.98;101458.41;5013405;28;45273;-78
2023/09/27 06:57:28;;;;;;;;;14.25;14.25;;;;;28.19;40.66;101450.31;4995694;28;45428;-77
2023/09/27 06:59:54;;;;;;;;;12.25;12.25;;;;;28.29;40.32;101440.00;5013311;28;45507;-77
2023/09/27 07:02:19;;;;;;;;;16.00;13.25;;;;;28.44;40.55;101445.72;5013577;28;45443;-77
2023/09/27 07:04:46;;;;;;;;;14.25;13.50;;;;;28.44;40.69;101438.31;5013208;28;45324;-77
2023/09/27 07:07:12;;;;;;;;;14.00;12.25;;;;;28.53;40.43;101451.09;5014058;28;45317;-77
2023/09/27 07:09:37;;;;;;;;;12.25;12.00;;;;;28.55;40.50;101442.63;5016025;28;45265;-76
2023/09/27 07:12:03;;;;;;;;;13.75;13.75;;;;;28.58;40.15;101440.38;5016955;28;46058;-77
2023/09/27 07:14:28;;;;;;;;;13.75;12.75;;;;;28.66;40.50;101434.03;5016642;28;45539;-79
2023/09/27 07:16:54;;;;;;;;;14.25;14.25;;;;;28.69;39.76;101441.09;5023403;28;45764;-77
2023/09/27 07:19:19;;;;;;;;;14.50;14.25;;;;;28.77;39.79;101441.13;5034425;28;45185;-78
2023/09/27 07:21:45;;;;;;;;;11.75;10.00;;;;;28.83;39.99;101427.53;5026046;28;45435;-78
2023/09/27 07:24:11;;;;;;;;;14.00;13.75;;;;;28.97;39.87;101434.25;5036523;28;45193;-78
2023/09/27 07:26:37;;;;;;;;;15.00;13.25;;;;;28.96;39.49;101415.94;5036515;28;45257;-77
2023/09/27 07:29:02;;;;;;;;;15.50;14.00;;;;;29.06;39.34;101424.06;5036534;28;45382;-76
2023/09/27 07:31:29;;;;;;;;;13.75;13.75;;;;;28.98;39.63;101417.50;5044437;28;46036;-78
2023/09/27 07:33:55;;;;;;;;;13.00;11.50;;;;;29.07;39.33;101423.88;5056471;28;45315;-78
2023/09/27 07:36:24;;;;;;;;;15.50;12.25;;;;;29.04;40.05;101426.97;5056536;28;45515;-77
2023/09/27 07:38:50;;;;;;;;;16.00;13.00;;;;;29.06;39.54;101427.69;5056473;28;45265;-76
2023/09/27 07:41:16;;;;;;;;;17.50;13.75;;;;;29.17;39.22;101435.63;5056127;28;46389;-77
2023/09/27 07:43:42;;;;;;;;;8.25;8.00;;;;;29.20;39.77;101428.84;5056477;28;45330;-77
2023/09/27 07:46:08;;;;;;;;;16.00;14.75;;;;;29.25;39.59;101437.50;5059493;28;45400;-78
2023/09/27 07:48:38;;;;;;;;;11.25;10.50;;;;;29.31;38.95;101432.13;5038960;28;45545;-76
2023/09/27 07:51:10;;;;;;;;;16.00;13.25;;;;;29.39;39.13;101433.19;5040205;28;45327;-77
2023/09/27 07:53:37;;;;;;;;;15.50;13.75;;;;;29.31;39.38;101425.75;5056941;28;45398;-77
2023/09/27 07:56:03;;;;;;;;;12.25;10.75;;;;;29.46;39.53;101426.78;5056284;28;45739;-76
2023/09/27 07:58:29;;;;;;;;;15.00;13.00;;;;;29.53;39.77;101424.16;5056211;28;45342;-79
2023/09/27 08:00:54;;;;;;;;;12.75;12.25;;;;;29.56;39.08;101413.63;5056490;28;46120;-76
2023/09/27 08:03:21;;;;;;;;;11.75;11.75;;;;;29.76;39.10;101419.59;5038048;28;45281;-76
2023/09/27 08:05:49;;;;;;;;;11.50;11.50;;;;;29.81;38.91;101417.16;5056445;28;45376;-77
2023/09/27 08:08:15;;;;;;;;;17.00;13.50;;;;;29.82;38.97;101412.50;5056302;28;45244;-77
2023/09/27 08:10:43;;;;;;;;;11.75;11.00;;;;;29.85;38.63;101413.00;5055986;28;45356;-77
2023/09/27 08:13:13;;;;;;;;;11.00;11.00;;;;;29.79;38.96;101415.59;5056404;28;45489;-78
2023/09/27 08:15:40;;;;;;;;;11.00;11.00;;;;;29.82;38.72;101415.25;5056389;28;45445;-77
2023/09/27 08:18:05;;;;;;;;;10.25;10.25;;;;;29.77;38.79;101410.28;5055881;28;45512;-77
2023/09/27 08:20:30;;;;;;;;;13.50;11.50;;;;;29.66;38.40;101386.66;5043172;28;45500;-78
2023/09/27 08:22:56;;;;;;;;;13.50;10.50;;;;;29.69;38.29;101402.00;5054973;28;45347;-78
2023/09/27 08:25:21;;;;;;;;;13.00;10.50;;;;;29.68;38.63;101398.38;5056096;28;45371;-77
2023/09/27 08:27:50;;;;;;;;;11.25;10.50;;;;;29.62;37.93;101374.22;5055805;28;45529;-77
2023/09/27 08:30:16;;;;;;;;;8.50;8.50;;;;;29.83;37.45;101390.19;5056220;28;45276;-77
2023/09/27 08:32:41;;;;;;;;;10.25;9.25;;;;;29.91;37.97;101394.81;5055645;28;45302;-77
2023/09/27 08:35:07;;;;;;;;;11.75;11.75;;;;;29.95;37.79;101394.31;5055903;28;45216;-77
2023/09/27 08:37:32;;;;;;;;;12.00;9.00;;;;;30.03;37.83;101383.19;5055721;28;45633;-76
2023/09/27 08:39:58;;;;;;;;;10.00;10.00;;;;;30.12;37.39;101374.84;5055707;28;45457;-78
2023/09/27 08:42:24;;;;;;;;;10.75;10.75;;;;;30.20;37.71;101375.66;5055503;28;45422;-77
2023/09/27 08:44:52;;;;;;;;;11.75;11.75;;;;;30.35;37.07;101371.09;5071338;28;45494;-78
2023/09/27 08:47:18;;;;;;;;;13.00;11.50;;;;;30.36;37.21;101355.34;5055565;28;45477;-78
2023/09/27 08:49:49;;;;;;;;;10.50;9.50;;;;;30.31;36.88;101322.69;5055587;28;46287;-76
2023/09/27 08:52:17;;;;;;;;;9.25;9.25;;;;;30.54;37.55;101350.38;5055436;28;45329;-78
2023/09/27 08:54:43;;;;;;;;;11.25;10.00;;;;;30.59;37.51;101338.75;5055509;28;45468;-77
2023/09/27 08:57:10;;;;;;;;;10.75;9.75;;;;;30.70;36.95;101354.94;5055540;28;45439;-78
2023/09/27 08:59:36;;;;;;;;;9.00;9.00;;;;;30.69;36.86;101326.38;5037096;28;47586;-78
2023/09/27 09:02:04;;;;;;;;;6.50;6.50;;;;;30.81;36.48;101335.94;5055841;28;45331;-77
2023/09/27 09:04:31;;;;;;;;;12.75;11.25;;;;;30.78;36.49;101336.34;5054015;28;45410;-78
2023/09/27 09:06:57;;;;;;;;;12.50;10.75;;;;;30.80;36.43;101331.44;5055529;28;45279;-78
2023/09/27 09:09:25;;;;;;;;;11.25;10.25;;;;;30.81;36.01;101327.63;5036729;28;47651;-77
2023/09/27 09:11:57;;;;;;;;;8.50;8.50;;;;;30.77;36.25;101318.00;5055664;28;45253;-79
2023/09/27 09:14:44;;;;;;;;;11.25;9.00;;;;;30.70;36.08;101314.25;5055581;28;45236;-78
2023/09/27 09:17:11;;;;;;;;;5.50;5.00;;;;;30.76;35.99;101324.56;5054966;28;46134;-78
2023/09/27 09:19:38;;;;;;;;;8.25;7.50;;;;;30.77;36.37;101322.66;5053986;28;45370;-77
2023/09/27 09:22:10;;;;;;;;;13.00;9.50;;;;;30.67;36.03;101322.06;5054966;28;45396;-78
2023/09/27 09:24:36;;;;;;;;;10.50;9.50;;;;;30.65;35.80;101315.84;5054820;28;45244;-77
2023/09/27 09:27:07;;;;;;;;;8.50;8.50;;;;;30.62;36.20;101319.00;5055038;28;45247;-76
2023/09/27 09:29:50;;;;;;;;;9.25;9.25;;;;;30.70;36.19;101321.72;5055013;28;46280;-79
2023/09/27 09:32:20;;;;;;;;;11.00;11.00;;;;;30.72;36.82;101320.44;5054071;28;45549;-78
2023/09/27 09:34:48;;;;;;;;;9.50;9.50;;;;;30.73;36.32;101319.41;5055305;28;45299;-78
2023/09/27 09:37:23;;;;;;;;;13.75;9.50;;;;;30.74;36.55;101309.19;5054745;28;45521;-76
2023/09/27 09:39:50;;;;;;;;;10.00;10.00;;;;;30.84;36.33;101329.16;5054580;28;45457;-77
2023/09/27 09:42:33;;;;;;;;;9.50;9.50;;;;;30.82;36.16;101317.41;5054515;28;45379;-78
2023/09/27 09:45:12;;;;;;;;;12.50;9.25;;;;;30.76;36.25;101324.56;5054762;28;45512;-77
2023/09/27 09:47:39;;;;;;;;;7.00;7.00;;;;;30.84;35.80;101323.63;5036723;28;46995;-77
2023/09/27 09:50:06;;;;;;;;;8.50;7.75;;;;;30.82;35.69;101321.03;5036313;28;47276;-78
2023/09/27 09:52:35;;;;;;;;;7.75;7.75;;;;;30.76;35.61;101316.28;5054754;28;45249;-78
2023/09/27 09:55:03;;;;;;;;;8.25;8.25;;;;;30.81;35.86;101308.25;5054440;28;45492;-78
2023/09/27 09:57:35;;;;;;;;;9.25;8.00;;;;;30.86;35.57;101310.47;5054282;28;45485;-78
2023/09/27 10:00:17;;;;;;;;;8.50;7.25;;;;;30.88;35.23;101297.28;5036350;28;48275;-80
2023/09/27 10:02:51;;;;;;;;;8.25;7.00;;;;;30.87;35.68;101295.56;5054585;28;45235;-78
2023/09/27 10:05:23;;;;;;;;;8.50;8.00;;;;;30.74;35.16;101276.84;5054573;28;45343;-78
2023/09/27 10:07:50;;;;;;;;;9.00;8.50;;;;;30.83;35.22;101288.69;5054328;28;45450;-78
2023/09/27 10:10:20;;;;;;;;;7.25;5.50;;;;;30.84;36.16;101277.44;5054326;28;45342;-78
2023/09/27 10:12:48;;;;;;;;;7.00;7.00;;;;;30.82;35.62;101250.97;5054476;28;45325;-78
2023/09/27 10:15:18;;;;;;;;;8.50;7.75;;;;;31.05;35.56;101268.34;5069642;28;45665;-77
2023/09/27 10:17:45;;;;;;;;;8.25;8.25;;;;;31.08;35.21;101251.38;5054408;28;45688;-78
2023/09/27 10:20:12;;;;;;;;;6.25;6.25;;;;;31.19;35.06;101266.69;5044200;28;46188;-78
2023/09/27 10:22:42;;;;;;;;;9.00;9.00;;;;;31.29;35.42;101249.75;5050178;28;45343;-78
2023/09/27 10:25:23;;;;;;;;;8.25;8.25;;;;;31.36;34.96;101246.00;5054777;28;45319;-77
2023/09/27 10:28:01;;;;;;;;;7.50;7.50;;;;;31.38;34.97;101257.78;5054039;28;45324;-78
2023/09/27 10:30:48;;;;;;;;;9.00;7.00;;;;;31.44;34.29;101258.91;5054060;28;46151;-79
2023/09/27 10:33:20;;;;;;;;;6.25;6.25;;;;;31.48;34.59;101252.75;5040443;28;45317;-78
2023/09/27 10:36:06;;;;;;;;;5.75;5.75;;;;;31.43;34.63;101254.41;5054193;28;45355;-77
2023/09/27 10:38:41;;;;;;;;;7.00;6.50;;;;;31.61;34.36;101249.31;5053879;28;45371;-77
2023/09/27 10:41:07;;;;;;;;;8.00;5.75;;;;;31.77;33.29;101245.47;5053825;28;45245;-77
2023/09/27 10:43:32;;;;;;;;;7.25;7.25;;;;;31.95;32.87;101249.50;5057227;28;45341;-78
2023/09/27 10:45:59;;;;;;;;;2.50;2.00;;;;;32.01;33.07;101241.44;5057831;28;45311;-78
2023/09/27 10:48:24;;;;;;;;;6.50;6.50;;;;;32.10;32.71;101249.44;5057410;28;46055;-79
2023/09/27 10:50:56;;;;;;;;;6.75;6.75;;;;;32.25;32.48;101260.47;5039345;28;46894;-78
2023/09/27 10:53:22;;;;;;;;;6.75;6.75;;;;;32.41;32.29;101243.53;5057321;28;45322;-79
2023/09/27 10:55:47;;;;;;;;;8.25;8.25;;;;;32.72;32.52;101251.53;5057452;28;45335;-78
2023/09/27 10:58:15;;;;;;;;;6.50;6.50;;;;;32.89;32.19;101247.38;5057362;28;45516;-77
2023/09/27 11:00:57;;;;;;;;;6.00;6.00;;;;;33.11;31.89;101252.81;5057683;28;46110;-77
2023/09/27 11:03:29;;;;;;;;;5.50;5.50;;;;;33.16;31.09;101253.06;5057352;28;45506;-78
2023/09/27 11:05:55;;;;;;;;;9.75;8.00;;;;;33.33;31.79;101258.13;5040278;28;45368;-78
2023/09/27 11:08:24;;;;;;;;;10.00;7.25;;;;;33.58;31.23;101252.88;5057059;28;45955;-78
2023/09/27 11:10:52;;;;;;;;;7.50;6.25;;;;;33.62;30.43;101251.38;5038791;28;47216;-80
2023/09/27 11:13:19;;;;;;;;;8.00;7.50;;;;;33.55;30.41;101242.16;5057293;28;45346;-78
2023/09/27 11:15:44;;;;;;;;;5.50;5.50;;;;;33.65;30.23;101233.41;5057758;28;45267;-76
2023/09/27 11:18:10;;;;;;;;;5.25;5.25;;;;;33.72;29.96;101250.97;5057296;28;45431;-77
2023/09/27 11:20:36;;;;;;;;;6.00;6.00;;;;;33.80;30.08;101242.47;5055777;28;45363;-79
2023/09/27 11:23:02;;;;;;;;;8.50;6.50;;;;;33.89;30.51;101221.72;5057104;28;45303;-78
2023/09/27 11:25:37;;;;;;;;;7.50;7.00;;;;;33.84;30.06;101198.41;5057520;28;45181;-78
2023/09/27 11:28:03;;;;;;;;;9.75;9.75;;;;;34.11;30.07;101216.84;5056947;28;45632;-78
2023/09/27 11:30:33;;;;;;;;;7.25;7.25;;;;;34.17;30.34;101214.06;5056649;28;46501;-77
2023/09/27 11:33:04;;;;;;;;;8.00;6.75;;;;;34.07;30.15;101208.06;5056832;28;45367;-78
2023/09/27 11:35:30;;;;;;;;;7.00;6.25;;;;;34.14;29.42;101183.00;5056800;28;45252;-77
2023/09/27 11:38:09;;;;;;;;;7.50;7.50;;;;;34.56;28.62;101187.28;5056688;28;45434;-78
2023/09/27 11:40:34;;;;;;;;;5.00;5.00;;;;;35.00;29.02;101178.22;5058422;28;46133;-77
2023/09/27 11:43:03;;;;;;;;;7.75;6.75;;;;;35.22;29.19;101176.81;5056604;28;45415;-78
2023/09/27 11:45:41;;;;;;;;;7.00;7.00;;;;;35.21;28.49;101169.56;5056684;28;45375;-76
2023/09/27 11:48:06;;;;;;;;;12.50;10.75;;;;;35.11;28.31;101168.31;5056523;28;45408;-76
2023/09/27 11:50:31;;;;;;;;;9.50;9.50;;;;;35.03;28.61;101143.47;5056228;28;45605;-76
2023/09/27 11:52:56;;;;;;;;;12.25;11.50;;;;;35.02;28.98;101141.78;5051523;28;55399;-78
2023/09/27 11:55:22;;;;;;;;;9.00;9.00;;;;;35.08;28.80;101116.66;5052818;28;45446;-77
2023/09/27 11:57:47;;;;;;;;;10.25;8.50;;;;;35.34;29.22;101100.88;5044754;28;45465;-77
2023/09/27 12:00:15;;;;;;;;;24.00;24.00;;;;;35.65;28.45;101112.03;5056258;28;46217;-78
2023/09/27 12:02:41;;;;;;;;;15.75;15.75;;;;;35.85;28.22;101107.19;5056450;28;45319;-78
2023/09/27 12:05:06;;;;;;;;;6.75;6.75;;;;;35.81;28.50;101108.75;5056331;28;45229;-79
2023/09/27 12:07:32;;;;;;;;;6.75;6.75;;;;;35.67;27.71;101104.28;5056563;28;45217;-78
2023/09/27 12:09:57;;;;;;;;;8.00;8.00;;;;;35.78;27.95;101102.75;5055849;28;45390;-78
2023/09/27 12:12:23;;;;;;;;;7.00;7.00;;;;;35.94;28.16;101096.59;5056357;28;45366;-78
2023/09/27 12:14:49;;;;;;;;;4.75;4.75;;;;;36.09;27.92;101090.66;5056469;28;45387;-78
2023/09/27 12:17:15;;;;;;;;;6.00;6.00;;;;;36.21;27.42;101084.13;5056269;28;45954;-78
2023/09/27 12:19:41;;;;;;;;;5.50;5.50;;;;;36.52;26.92;101079.47;5055856;28;46445;-78
2023/09/27 12:22:07;;;;;;;;;5.50;5.50;;;;;36.99;26.15;101100.22;5052791;28;45549;-79
2023/09/27 12:24:32;;;;;;;;;7.75;5.00;;;;;37.80;25.94;101094.94;5037674;28;45496;-78
2023/09/27 12:26:57;;;;;;;;;4.00;4.00;;;;;38.75;24.92;101079.84;5052847;28;46042;-79
2023/09/27 12:29:23;;;;;;;;;5.00;5.00;;;;;39.65;23.68;101092.06;5055880;28;45588;-76
2023/09/27 12:31:48;;;;;;;;;6.25;4.50;;;;;40.26;23.35;101081.03;5053741;28;45434;-78
2023/09/27 12:34:14;;;;;;;;;7.00;5.00;;;;;40.86;22.40;101083.84;5055892;28;45433;-78
2023/09/27 12:36:39;;;;;;;;;3.00;3.00;;;;;41.37;21.39;101079.66;5040898;28;45322;-79
2023/09/27 12:39:04;;;;;;;;;5.00;5.00;;;;;41.54;20.97;101037.34;5028023;28;45421;-77
2023/09/27 12:41:30;;;;;;;;;3.25;3.25;;;;;42.39;19.90;101077.75;5034576;28;45411;-77
2023/09/27 12:43:55;;;;;;;;;4.00;4.00;;;;;42.90;20.31;101074.06;5034116;28;45471;-79
2023/09/27 12:46:20;;;;;;;;;6.00;4.25;;;;;43.14;19.03;101062.28;5035498;28;46085;-78
2023/09/27 12:48:46;;;;;;;;;3.00;3.00;;;;;42.88;19.61;101045.28;5034681;28;45874;-78
2023/09/27 12:51:11;;;;;;;;;3.25;3.25;;;;;42.48;19.58;101047.91;5035659;28;45418;-78
2023/09/27 12:53:38;;;;;;;;;5.00;4.00;;;;;42.12;19.74;101046.84;5055128;28;45275;-79
2023/09/27 12:56:04;;;;;;;;;7.00;6.00;;;;;41.51;21.03;101054.78;5055072;28;45165;-78
2023/09/27 12:58:30;;;;;;;;;8.00;4.25;;;;;40.89;21.14;101040.28;5055347;28;46394;-77
2023/09/27 13:00:55;;;;;;;;;4.00;4.00;;;;;40.52;21.95;101057.78;5055351;28;45340;-78
2023/09/27 13:03:22;;;;;;;;;4.00;4.00;;;;;40.29;22.00;101055.22;5055576;28;45462;-78
2023/09/27 13:05:47;;;;;;;;;5.00;4.00;;;;;40.55;22.04;101046.03;5054358;28;46132;-79
2023/09/27 13:08:12;;;;;;;;;4.00;4.00;;;;;40.75;21.01;101043.50;5055411;28;47057;-78
2023/09/27 13:10:38;;;;;;;;;2.75;2.75;;;;;41.22;21.59;101026.06;5055284;28;45617;-79
2023/09/27 13:13:04;;;;;;;;;6.00;5.00;;;;;42.08;20.82;101043.72;5055137;28;45390;-79
2023/09/27 13:15:29;;;;;;;;;3.00;3.00;;;;;42.68;19.57;101039.56;5055346;28;45471;-78
2023/09/27 13:17:56;;;;;;;;;5.50;3.75;;;;;43.42;19.29;101035.53;5055154;28;45623;-79
2023/09/27 13:20:22;;;;;;;;;4.00;4.00;;;;;44.35;19.05;101028.44;5056059;28;45261;-78
2023/09/27 13:22:48;;;;;;;;;5.25;4.25;;;;;44.93;17.49;101027.91;5037707;28;45269;-77
2023/09/27 13:25:14;;;;;;;;;3.00;3.00;;;;;45.50;17.03;101039.50;5054986;28;45596;-78
2023/09/27 13:27:40;;;;;;;;;2.50;2.50;;;;;45.58;16.63;101027.50;5055076;28;46339;-79
2023/09/27 13:30:06;;;;;;;;;3.50;3.25;;;;;45.36;16.96;101027.09;5055104;28;45427;-78
2023/09/27 13:32:32;;;;;;;;;3.75;3.75;;;;;44.19;17.62;101023.94;5055126;28;45406;-79
2023/09/27 13:34:58;;;;;;;;;2.50;2.50;;;;;43.91;18.35;101005.59;5055022;28;45552;-79
2023/09/27 13:37:24;;;;;;;;;3.00;3.00;;;;;43.93;17.93;101014.66;5054786;28;45352;-80
2023/09/27 13:39:49;;;;;;;;;4.50;4.50;;;;;43.97;17.25;101010.16;5036639;28;45939;-78
2023/09/27 13:42:14;;;;;;;;;4.00;4.00;;;;;44.33;18.32;100993.94;5054767;28;45214;-78
2023/09/27 13:44:40;;;;;;;;;4.25;3.25;;;;;44.63;17.46;100989.31;5054785;28;45576;-78
2023/09/27 13:47:05;;;;;;;;;4.00;3.25;;;;;45.19;17.51;100984.19;5054834;28;46428;-78
2023/09/27 13:49:30;;;;;;;;;6.25;5.00;;;;;45.39;17.60;100975.53;5054828;28;45296;-78
2023/09/27 13:51:56;;;;;;;;;2.75;2.75;;;;;45.39;17.37;100966.19;5054565;28;46794;-79
2023/09/27 13:54:22;;;;;;;;;4.25;2.75;;;;;45.49;17.32;100954.81;5054423;28;45533;-79
2023/09/27 13:56:48;;;;;;;;;2.75;1.75;;;;;45.41;17.33;100958.25;5054371;28;45493;-78
2023/09/27 13:59:13;;;;;;;;;3.00;3.00;;;;;45.39;16.60;100967.03;5054801;28;45237;-79
2023/09/27 14:01:39;;;;;;;;;0.25;0.25;;;;;45.15;16.64;100975.44;5055203;28;45256;-79
2023/09/27 14:04:04;;;;;;;;;4.00;4.00;;;;;44.05;17.08;100980.47;5054583;28;45594;-76
2023/09/27 14:06:30;;;;;;;;;2.00;2.00;;;;;43.48;18.01;100990.09;5054412;28;46201;-78
2023/09/27 14:08:56;;;;;;;;;2.25;2.25;;;;;42.76;18.31;100964.88;5054621;28;45371;-78
2023/09/27 14:11:22;;;;;;;;;3.00;3.00;;;;;42.02;18.98;100999.75;5054487;28;45331;-78
2023/09/27 14:13:48;;;;;;;;;3.25;3.25;;;;;41.00;20.41;100985.88;5054559;28;45398;-79
2023/09/27 14:16:16;;;;;;;;;2.50;2.50;;;;;40.77;20.67;100987.00;5054139;28;45481;-78
2023/09/27 14:18:42;;;;;;;;;2.75;2.75;;;;;40.02;20.79;100974.47;5054382;28;45273;-78
2023/09/27 14:21:08;;;;;;;;;4.00;4.00;;;;;39.89;21.32;100983.28;5053473;28;45266;-79
2023/09/27 14:23:35;;;;;;;;;2.00;2.00;;;;;39.70;21.64;100977.06;5054719;28;45367;-78
2023/09/27 14:26:00;;;;;;;;;4.50;3.50;;;;;39.46;22.14;100972.75;5053889;28;45439;-78
2023/09/27 14:28:26;;;;;;;;;1.50;1.50;;;;;39.18;22.49;100962.41;5054320;28;45333;-77
2023/09/27 14:30:51;;;;;;;;;1.25;1.25;;;;;39.20;22.42;100967.78;5054361;28;45692;-78
2023/09/27 14:33:16;;;;;;;;;2.75;2.75;;;;;39.12;22.87;100955.03;5055207;28;51282;-77
2023/09/27 14:35:44;;;;;;;;;2.50;2.50;;;;;38.91;23.45;100950.94;5054998;28;45733;-78
2023/09/27 14:38:15;;;;;;;;;4.25;4.25;;;;;38.66;23.28;100950.47;5055500;28;45351;-78
2023/09/27 14:40:40;;;;;;;;;1.50;1.50;;;;;38.34;23.73;100938.88;5055068;28;45415;-78
2023/09/27 14:43:06;;;;;;;;;2.00;2.00;;;;;38.22;23.97;100952.91;5054917;28;45400;-77
2023/09/27 14:45:32;;;;;;;;;2.25;2.25;;;;;38.04;23.90;100929.78;5055943;28;46026;-78
2023/09/27 14:47:57;;;;;;;;;3.00;3.00;;;;;38.04;23.61;100940.97;5055747;28;45400;-78
2023/09/27 14:50:23;;;;;;;;;3.50;2.50;;;;;37.80;23.59;100915.81;5037001;28;45298;-78
2023/09/27 14:52:48;;;;;;;;;3.00;3.00;;;;;37.78;24.05;100943.19;5054334;28;45462;-79
2023/09/27 14:55:15;;;;;;;;;2.00;2.00;;;;;37.49;24.21;100930.16;5053549;28;46182;-79
2023/09/27 14:57:41;;;;;;;;;2.00;2.00;;;;;37.40;24.05;100937.22;5053533;28;45277;-77
2023/09/27 15:00:08;;;;;;;;;3.75;3.75;;;;;37.22;24.14;100945.69;5053827;28;45418;-79
2023/09/27 15:02:33;;;;;;;;;5.25;3.50;;;;;36.97;24.24;100935.53;5053587;28;46621;-79
2023/09/27 15:04:59;;;;;;;;;2.50;2.50;;;;;36.82;24.25;100937.94;5053530;28;46251;-78
2023/09/27 15:07:24;;;;;;;;;4.50;3.00;;;;;36.66;24.48;100933.84;5053751;28;45221;-78
2023/09/27 15:09:49;;;;;;;;;2.00;2.00;;;;;36.48;24.45;100935.81;5053672;28;45417;-78
2023/09/27 15:12:14;;;;;;;;;3.00;3.00;;;;;36.51;24.44;100935.31;5053478;28;45493;-77
2023/09/27 15:14:40;;;;;;;;;4.00;3.50;;;;;36.38;24.45;100920.47;5052033;28;46062;-79
2023/09/27 15:17:05;;;;;;;;;3.25;2.00;;;;;36.33;24.62;100925.03;5053421;28;45363;-78
2023/09/27 15:19:30;;;;;;;;;3.00;3.00;;;;;36.28;24.98;100922.09;5049836;28;45318;-79
2023/09/27 15:21:56;;;;;;;;;4.00;2.25;;;;;36.16;25.18;100923.94;5044732;28;46606;-77
2023/09/27 15:24:22;;;;;;;;;3.00;3.00;;;;;35.98;25.15;100913.66;5053294;28;45480;-78
2023/09/27 15:26:48;;;;;;;;;2.00;2.00;;;;;35.78;25.48;100916.66;5053314;28;45507;-81
2023/09/27 15:29:13;;;;;;;;;4.00;4.00;;;;;35.74;25.69;100920.13;5054918;28;45608;-79
2023/09/27 15:31:38;;;;;;;;;2.00;2.00;;;;;35.69;25.81;100922.75;5056965;28;45420;-78
2023/09/27 15:34:04;;;;;;;;;3.25;3.25;;;;;35.61;26.06;100921.09;5056813;28;45943;-78
2023/09/27 15:36:30;;;;;;;;;3.00;3.00;;;;;35.54;26.35;100923.13;5057048;28;45547;-76
2023/09/27 15:38:55;;;;;;;;;3.00;3.00;;;;;35.44;26.03;100909.69;5056947;28;45566;-77
2023/09/27 15:41:21;;;;;;;;;5.00;3.75;;;;;35.41;26.13;100901.78;5051646;28;47060;-78
2023/09/27 15:43:48;;;;;;;;;4.00;3.00;;;;;35.43;26.08;100921.06;5046416;28;46418;-78
2023/09/27 15:46:15;;;;;;;;;2.75;2.75;;;;;35.21;26.73;100909.47;5057301;28;45328;-77
2023/09/27 15:48:42;;;;;;;;;3.75;3.00;;;;;35.26;26.82;100918.88;5053150;28;45343;-77